createdAt,value
2022-10-11T00:01:29.718Z,101138.44
2022-10-11T00:04:32.969Z,101131.31
2022-10-11T00:07:38.325Z,101125.91
2022-10-11T00:10:41.751Z,101129.28
2022-10-11T00:13:44.534Z,101130.00
2022-10-11T00:16:47.556Z,101125.59
2022-10-11T00:19:50.304Z,101131.53
2022-10-11T00:22:53.561Z,101127.81
2022-10-11T00:26:04.961Z,101123.28
2022-10-11T00:29:08.077Z,101120.56
2022-10-11T00:32:11.333Z,101111.66
2022-10-11T00:35:15.309Z,101115.09
2022-10-11T00:38:18.668Z,101121.87
2022-10-11T00:41:22.064Z,101126.03
2022-10-11T00:44:28.267Z,101128.22
2022-10-11T00:47:31.122Z,101120.84
2022-10-11T00:50:36.720Z,101112.72
2022-10-11T00:53:41.318Z,101118.66
2022-10-11T00:56:54.795Z,101106.41
2022-10-11T00:59:58.870Z,101109.81
2022-10-11T01:03:02.775Z,101107.91
2022-10-11T01:06:06.534Z,101103.56
2022-10-11T01:09:11.226Z,101107.84
2022-10-11T01:12:18.755Z,101101.34
2022-10-11T01:15:55.279Z,101103.91
2022-10-11T01:19:20.123Z,101106.44
2022-10-11T01:22:41.064Z,101105.41
2022-10-11T01:26:09.129Z,101109.62
2022-10-11T01:29:18.286Z,101105.16
2022-10-11T01:32:40.963Z,101107.84
2022-10-11T01:36:27.796Z,101107.84
2022-10-11T01:39:43.670Z,101102.31
2022-10-11T01:42:48.293Z,101101.59
2022-10-11T01:45:53.547Z,101102.25
2022-10-11T01:49:01.263Z,101096.25
2022-10-11T01:52:06.950Z,101097.22
2022-10-11T01:55:44.296Z,101102.56
2022-10-11T01:59:11.959Z,101091.34
2022-10-11T02:02:32.091Z,101089.62
2022-10-11T02:05:43.424Z,101089.81
2022-10-11T02:08:59.211Z,101082.75
2022-10-11T02:12:10.081Z,101081.03
2022-10-11T02:15:14.644Z,101081.03
2022-10-11T02:18:22.221Z,101084.47
2022-10-11T02:21:26.159Z,101083.66
2022-10-11T02:24:34.749Z,101093.06
2022-10-11T02:27:40.768Z,101090.34
2022-10-11T02:30:47.405Z,101074.56
2022-10-11T02:34:03.001Z,101069.06
2022-10-11T02:37:12.168Z,101075.81
2022-10-11T02:40:20.056Z,101087.97
2022-10-11T02:43:45.764Z,101088.81
2022-10-11T02:46:51.932Z,101091.16
2022-10-11T02:50:14.825Z,101092.94
2022-10-11T02:53:35.548Z,101098.91
2022-10-11T02:56:38.626Z,101100.63
2022-10-11T02:59:44.049Z,101099.69
2022-10-11T03:02:48.582Z,101100.63
2022-10-11T03:05:51.364Z,101107.06
2022-10-11T03:08:54.283Z,101114.22
2022-10-11T03:11:57.404Z,101108.28
2022-10-11T03:15:00.893Z,101110.25
2022-10-11T03:18:04.894Z,101100.84
2022-10-11T03:21:07.806Z,101100.97
2022-10-11T03:24:14.960Z,101096.75
2022-10-11T03:27:20.460Z,101099.56
2022-10-11T03:30:23.921Z,101099.69
2022-10-11T03:33:26.799Z,101092.69
2022-10-11T03:36:30.585Z,101094.47
2022-10-11T03:39:33.414Z,101097.78
2022-10-11T03:42:37.000Z,101096.69
2022-10-11T03:45:42.431Z,101105.28
2022-10-11T03:48:46.170Z,101104.97
2022-10-11T03:51:49.137Z,101109.25
2022-10-11T03:54:52.426Z,101111.59
2022-10-11T03:57:55.014Z,101118.72
2022-10-11T04:01:02.260Z,101125.94
2022-10-11T04:04:12.148Z,101124.28
2022-10-11T04:07:16.629Z,101119.31
2022-10-11T04:10:21.395Z,101116.00
2022-10-11T04:13:24.952Z,101112.50
2022-10-11T04:16:28.874Z,101116.56
2022-10-11T04:19:32.802Z,101122.63
2022-10-11T04:22:37.206Z,101121.84
2022-10-11T04:25:40.134Z,101129.75
2022-10-11T04:28:47.364Z,101129.03
2022-10-11T04:31:50.685Z,101130.91
2022-10-11T04:34:53.897Z,101124.84
2022-10-11T04:37:59.214Z,101132.81
2022-10-11T04:41:10.519Z,101123.50
2022-10-11T04:44:13.732Z,101129.63
2022-10-11T04:47:16.847Z,101125.34
2022-10-11T04:50:21.740Z,101132.41
2022-10-11T04:53:25.680Z,101129.03
2022-10-11T04:56:32.291Z,101128.22
2022-10-11T04:59:36.767Z,101119.59
2022-10-11T05:02:41.378Z,101126.59
2022-10-11T05:05:45.362Z,101130.41
2022-10-11T05:08:48.642Z,101126.94
2022-10-11T05:11:52.812Z,101134.78
2022-10-11T05:15:08.711Z,101128.75
2022-10-11T05:18:18.741Z,101130.69
2022-10-11T05:21:28.357Z,101128.41
2022-10-11T05:24:35.223Z,101136.34
2022-10-11T05:27:41.368Z,101137.44
2022-10-11T05:30:44.901Z,101137.72
2022-10-11T05:33:51.730Z,101141.28
2022-10-11T05:36:56.827Z,101143.19
2022-10-11T05:40:00.240Z,101145.34
2022-10-11T05:43:04.272Z,101150.78
2022-10-11T05:46:09.105Z,101151.19
2022-10-11T05:49:13.032Z,101152.13
2022-10-11T05:52:20.495Z,101155.91
2022-10-11T05:55:23.810Z,101169.63
2022-10-11T05:58:27.432Z,101164.16
2022-10-11T06:01:30.576Z,101170.41
2022-10-11T06:04:37.255Z,101170.78
2022-10-11T06:07:40.409Z,101173.56
2022-10-11T06:10:45.237Z,101179.84
2022-10-11T06:13:48.681Z,101171.78
2022-10-11T06:16:53.013Z,101181.38
2022-10-11T06:20:00.589Z,101184.81
2022-10-11T06:23:07.224Z,101186.59
2022-10-11T06:26:16.162Z,101182.09
2022-10-11T06:29:19.719Z,101184.94
2022-10-11T06:32:23.291Z,101185.41
2022-10-11T06:35:28.217Z,101181.12
2022-10-11T06:38:35.021Z,101179.50
2022-10-11T06:41:42.099Z,101181.00
2022-10-11T06:44:44.955Z,101191.06
2022-10-11T06:47:50.247Z,101187.31
2022-10-11T06:51:00.057Z,101191.75
2022-10-11T06:54:05.421Z,101194.19
2022-10-11T06:57:08.780Z,101195.56
2022-10-11T07:00:14.435Z,101189.37
2022-10-11T07:03:22.263Z,101191.66
2022-10-11T07:06:28.062Z,101195.56
2022-10-11T07:09:34.645Z,101195.78
2022-10-11T07:12:38.409Z,101201.34
2022-10-11T07:15:41.399Z,101196.19
2022-10-11T07:18:48.713Z,101210.78
2022-10-11T07:21:52.276Z,101211.50
2022-10-11T07:24:55.560Z,101204.25
2022-10-11T07:27:58.949Z,101200.97
2022-10-11T07:31:09.377Z,101200.34
2022-10-11T07:34:14.422Z,101198.81
2022-10-11T07:37:17.898Z,101213.25
2022-10-11T07:40:22.783Z,101205.81
2022-10-11T07:43:26.369Z,101201.38
2022-10-11T07:46:30.394Z,101196.94
2022-10-11T07:49:33.456Z,101198.63
2022-10-11T07:52:36.655Z,101196.00
2022-10-11T07:55:43.059Z,101196.56
2022-10-11T07:58:51.698Z,101195.66
2022-10-11T08:01:59.303Z,101203.31
2022-10-11T08:05:11.192Z,101208.41
2022-10-11T08:08:15.047Z,101202.28
2022-10-11T08:11:27.023Z,101208.88
2022-10-11T08:18:34.500Z,101201.31
2022-10-11T08:22:43.438Z,101199.47
2022-10-11T08:25:49.536Z,101207.13
2022-10-11T08:28:54.817Z,101202.25
2022-10-11T08:32:01.538Z,101208.09
2022-10-11T08:35:06.405Z,101214.84
2022-10-11T08:38:10.498Z,101201.22
2022-10-11T08:41:20.902Z,101206.50
2022-10-11T08:45:09.915Z,101205.66
2022-10-11T08:48:24.275Z,101211.28
2022-10-11T08:51:34.451Z,101214.81
2022-10-11T08:54:51.157Z,101213.56
2022-10-11T08:57:56.024Z,101213.91
2022-10-11T09:01:00.805Z,101212.13
2022-10-11T09:04:06.421Z,101204.47
2022-10-11T09:07:31.463Z,101207.72
2022-10-11T09:10:44.550Z,101207.94
2022-10-11T09:14:13.263Z,101215.44
2022-10-11T09:17:39.751Z,101210.00
2022-10-11T09:20:53.268Z,101209.91
2022-10-11T09:24:21.325Z,101213.47
2022-10-11T09:28:01.683Z,101212.41
2022-10-11T09:31:11.072Z,101205.22
2022-10-11T09:34:15.737Z,101204.97
2022-10-11T09:37:33.062Z,101209.38
2022-10-11T09:41:06.093Z,101215.47
2022-10-11T09:44:48.216Z,101212.34
2022-10-11T09:47:59.245Z,101213.28
2022-10-11T09:51:12.397Z,101215.22
2022-10-11T09:54:18.407Z,101212.50
2022-10-11T09:57:31.187Z,101208.09
2022-10-11T10:00:35.107Z,101213.41
2022-10-11T10:03:44.566Z,101209.75
2022-10-11T10:06:48.449Z,101197.41
2022-10-11T10:09:54.328Z,101208.00
2022-10-11T10:13:06.404Z,101207.19
2022-10-11T10:16:28.505Z,101210.59
2022-10-11T10:19:48.600Z,101206.09
2022-10-11T10:22:59.171Z,101212.34
2022-10-11T10:26:16.271Z,101204.53
2022-10-11T10:29:20.311Z,101193.03
2022-10-11T10:32:30.988Z,101193.03
2022-10-11T10:35:47.593Z,101194.72
2022-10-11T10:39:21.180Z,101189.31
2022-10-11T10:42:25.644Z,101193.69
2022-10-11T10:45:39.383Z,101191.00
2022-10-11T10:52:39.008Z,101190.31
2022-10-11T10:55:46.045Z,101191.03
2022-10-11T10:59:19.171Z,101191.91
2022-10-11T11:02:41.522Z,101194.59
2022-10-11T11:06:07.823Z,101181.47
2022-10-11T11:09:37.341Z,101172.63
2022-10-11T11:13:05.131Z,101169.16
2022-10-11T11:16:30.953Z,101170.97
2022-10-11T11:19:59.662Z,101173.56
2022-10-11T11:23:23.810Z,101179.81
2022-10-11T11:26:49.434Z,101172.63
2022-10-11T11:30:32.221Z,101173.41
2022-10-11T11:33:59.485Z,101170.62
2022-10-11T11:37:09.953Z,101169.84
2022-10-11T11:40:12.684Z,101164.41
2022-10-11T11:43:23.221Z,101159.22
2022-10-11T11:46:36.175Z,101167.06
2022-10-11T11:50:04.536Z,101165.44
2022-10-11T11:53:26.233Z,101163.69
2022-10-11T11:56:45.392Z,101156.66
2022-10-11T12:00:04.112Z,101156.69
2022-10-11T12:03:24.164Z,101153.16
2022-10-11T12:06:47.878Z,101153.94
2022-10-11T12:10:36.576Z,101149.37
2022-10-11T12:13:41.002Z,101149.31
2022-10-11T12:17:21.913Z,101150.19
2022-10-11T12:20:39.211Z,101147.56
2022-10-11T12:23:57.330Z,101152.03
2022-10-11T12:27:38.608Z,101150.25
2022-10-11T12:30:49.224Z,101149.31
2022-10-11T12:34:16.496Z,101143.19
2022-10-11T12:37:25.135Z,101138.75
2022-10-11T12:40:42.223Z,101144.94
2022-10-11T12:43:50.331Z,101147.53
2022-10-11T12:46:53.860Z,101135.97
2022-10-11T12:50:23.375Z,101139.47
2022-10-11T12:54:14.404Z,101135.91
2022-10-11T12:57:45.957Z,101125.19
2022-10-11T13:00:56.561Z,101133.31
2022-10-11T13:04:12.646Z,101134.12
2022-10-11T13:07:24.478Z,101135.78
2022-10-11T13:10:44.914Z,101135.03
2022-10-11T13:14:30.198Z,101134.12
2022-10-11T13:17:39.179Z,101130.50
2022-10-11T13:20:45.134Z,101133.09
2022-10-11T13:23:51.355Z,101131.22
2022-10-11T13:26:58.364Z,101134.63
2022-10-11T13:30:12.261Z,101132.84
2022-10-11T13:33:24.296Z,101134.56
2022-10-11T13:36:33.805Z,101131.03
2022-10-11T13:39:39.247Z,101131.00
2022-10-11T13:42:51.084Z,101132.72
2022-10-11T13:45:58.535Z,101133.53
2022-10-11T13:49:07.255Z,101131.75
2022-10-11T13:52:22.273Z,101128.22
2022-10-11T13:55:39.315Z,101131.81
2022-10-11T13:58:48.708Z,101127.41
2022-10-11T14:01:59.003Z,101125.66
2022-10-11T14:05:05.505Z,101122.13
2022-10-11T14:08:49.174Z,101126.56
2022-10-11T14:11:57.237Z,101123.91
2022-10-11T14:15:34.447Z,101129.22
2022-10-11T14:18:38.134Z,101130.94
2022-10-11T14:21:46.558Z,101126.53
2022-10-11T14:25:04.214Z,101130.94
2022-10-11T14:28:14.362Z,101131.81
2022-10-11T14:31:25.297Z,101130.06
2022-10-11T14:34:32.095Z,101131.00
2022-10-11T14:37:36.585Z,101130.09
2022-10-11T14:40:52.169Z,101132.72
2022-10-11T14:43:57.297Z,101138.00
2022-10-11T14:47:06.520Z,101131.72
2022-10-11T14:50:23.441Z,101129.00
2022-10-11T14:53:27.115Z,101136.00
2022-10-11T14:56:35.003Z,101131.53
2022-10-11T14:59:39.837Z,101138.50
2022-10-11T15:02:45.590Z,101140.19
2022-10-11T15:05:53.524Z,101138.34
2022-10-11T15:08:58.736Z,101139.13
2022-10-11T15:12:01.769Z,101146.16
2022-10-11T15:15:04.919Z,101143.47
2022-10-11T15:18:17.205Z,101143.31
2022-10-11T15:21:25.443Z,101140.66
2022-10-11T15:24:41.328Z,101142.44
2022-10-11T15:27:46.000Z,101154.66
2022-10-11T15:30:58.066Z,101154.56
2022-10-11T15:34:08.561Z,101159.75
2022-10-11T15:37:13.212Z,101156.13
2022-10-11T15:40:28.389Z,101156.94
2022-10-11T15:43:39.299Z,101160.34
2022-10-11T15:46:52.284Z,101167.25
2022-10-11T15:49:56.250Z,101161.00
2022-10-11T15:53:33.524Z,101172.34
2022-10-11T15:56:38.388Z,101165.22
2022-10-11T15:59:48.517Z,101172.13
2022-10-11T16:02:59.289Z,101172.06
2022-10-11T16:06:14.291Z,101175.47
2022-10-11T16:09:17.615Z,101171.84
2022-10-11T16:12:26.287Z,101177.91
2022-10-11T16:15:34.196Z,101179.59
2022-10-11T16:18:38.495Z,101178.63
2022-10-11T16:21:42.796Z,101188.25
2022-10-11T16:24:55.314Z,101189.06
2022-10-11T16:28:06.464Z,101197.81
2022-10-11T16:31:18.360Z,101199.44
2022-10-11T16:34:24.757Z,101200.16
2022-10-11T16:37:36.417Z,101205.16
2022-10-11T16:40:50.302Z,101208.38
2022-10-11T16:44:02.576Z,101206.28
2022-10-11T16:47:20.569Z,101211.34
2022-10-11T16:50:27.491Z,101216.31
2022-10-11T16:53:44.217Z,101221.34
2022-10-11T16:56:52.283Z,101223.72
2022-10-11T17:00:14.282Z,101216.37
2022-10-11T17:03:21.361Z,101223.72
2022-10-11T17:06:27.353Z,101218.19
2022-10-11T17:09:41.548Z,101224.16
2022-10-11T17:12:50.175Z,101228.44
2022-10-11T17:15:58.810Z,101233.50
2022-10-11T17:19:03.181Z,101236.00
2022-10-11T17:22:08.260Z,101233.28
2022-10-11T17:25:12.844Z,101240.25
2022-10-11T17:28:19.619Z,101240.41
2022-10-11T17:31:40.294Z,101239.63
2022-10-11T17:34:55.329Z,101233.63
2022-10-11T17:38:05.926Z,101245.03
2022-10-11T17:41:17.593Z,101250.28
2022-10-11T17:44:24.728Z,101257.06
2022-10-11T17:47:37.333Z,101250.63
2022-10-11T17:50:46.983Z,101254.78
2022-10-11T17:53:54.749Z,101256.22
2022-10-11T17:56:59.976Z,101257.72
2022-10-11T18:00:11.510Z,101260.94
2022-10-11T18:03:45.608Z,101260.81
2022-10-11T18:06:56.551Z,101263.19
2022-10-11T18:10:04.511Z,101262.91
2022-10-11T18:13:10.969Z,101261.00
2022-10-11T18:16:33.210Z,101261.81
2022-10-11T18:19:45.321Z,101259.03
2022-10-11T18:23:04.563Z,101266.50
2022-10-11T18:26:26.711Z,101267.87
2022-10-11T18:29:38.632Z,101269.38
2022-10-11T18:32:41.908Z,101269.31
2022-10-11T18:35:51.584Z,101265.44
2022-10-11T18:39:09.231Z,101269.59
2022-10-11T18:42:23.224Z,101270.25
2022-10-11T18:45:32.601Z,101272.97
2022-10-11T18:48:42.404Z,101269.50
2022-10-11T18:51:50.367Z,101268.41
2022-10-11T18:55:13.455Z,101266.50
2022-10-11T18:58:31.008Z,101272.16
2022-10-11T19:01:59.252Z,101276.41
2022-10-11T19:05:09.262Z,101271.09
2022-10-11T19:08:33.661Z,101272.97
2022-10-11T19:11:42.603Z,101272.00
2022-10-11T19:14:57.647Z,101275.06
2022-10-11T19:18:01.886Z,101275.78
2022-10-11T19:21:10.367Z,101281.50
2022-10-11T19:24:30.291Z,101289.12
2022-10-11T19:27:44.392Z,101282.84
2022-10-11T19:30:49.239Z,101279.94
2022-10-11T19:34:01.288Z,101285.81
2022-10-11T19:37:09.528Z,101286.84
2022-10-11T19:40:21.278Z,101283.06
2022-10-11T19:43:44.764Z,101290.13
2022-10-11T19:46:53.263Z,101282.34
2022-10-11T19:49:56.352Z,101285.97
2022-10-11T19:53:07.316Z,101286.75
2022-10-11T19:56:19.438Z,101289.06
2022-10-11T19:59:30.298Z,101284.41
2022-10-11T20:02:37.840Z,101288.28
2022-10-11T20:05:42.314Z,101298.69
2022-10-11T20:09:27.537Z,101293.47
2022-10-11T20:12:29.360Z,101300.38
2022-10-11T20:15:37.394Z,101302.88
2022-10-11T20:18:42.776Z,101306.16
2022-10-11T20:21:45.595Z,101299.03
2022-10-11T20:24:55.311Z,101303.38
2022-10-11T20:28:00.265Z,101297.38
2022-10-11T20:31:11.633Z,101303.56
2022-10-11T20:34:15.382Z,101302.88
2022-10-11T20:37:19.288Z,101303.22
2022-10-11T20:40:22.118Z,101295.66
2022-10-11T20:43:28.686Z,101293.19
2022-10-11T20:46:33.916Z,101295.09
2022-10-11T20:49:37.636Z,101300.28
2022-10-11T20:52:54.526Z,101296.88
2022-10-11T21:00:34.357Z,101303.91
2022-10-11T21:03:40.180Z,101298.00
2022-10-11T21:06:43.038Z,101298.94
2022-10-11T21:10:08.505Z,101299.00
2022-10-11T21:13:14.278Z,101306.84
2022-10-11T21:16:30.877Z,101308.75
2022-10-11T21:19:46.282Z,101311.37
2022-10-11T21:22:49.353Z,101303.50
2022-10-11T21:26:02.942Z,101317.28
2022-10-11T21:29:09.237Z,101314.25
2022-10-11T21:32:15.494Z,101311.19
2022-10-11T21:35:20.150Z,101308.22
2022-10-11T21:38:28.302Z,101316.66
2022-10-11T21:41:47.831Z,101320.75
2022-10-11T21:45:05.676Z,101321.47
2022-10-11T21:48:22.280Z,101314.09
2022-10-11T21:51:32.414Z,101314.69
2022-10-11T21:54:35.478Z,101311.59
2022-10-11T21:57:38.448Z,101320.91
2022-10-11T22:00:41.524Z,101325.06
2022-10-11T22:04:43.760Z,101321.34
2022-10-11T22:07:58.443Z,101320.09
2022-10-11T22:11:18.924Z,101322.53
2022-10-11T22:14:29.926Z,101319.66
2022-10-11T22:17:33.088Z,101318.69
2022-10-11T22:20:40.729Z,101314.44
2022-10-11T22:23:46.259Z,101316.91
2022-10-11T22:26:54.547Z,101309.91
2022-10-11T22:29:57.499Z,101309.44
2022-10-11T22:33:36.408Z,101309.44
2022-10-11T22:37:11.151Z,101306.91
2022-10-11T22:40:57.954Z,101311.44
2022-10-11T22:44:01.458Z,101319.91
2022-10-11T22:47:04.492Z,101320.66
2022-10-11T22:54:26.594Z,101318.50
2022-10-11T22:57:36.591Z,101324.28
2022-10-11T23:00:42.226Z,101317.97
2022-10-11T23:03:50.706Z,101326.00
2022-10-11T23:06:55.347Z,101328.75
2022-10-11T23:09:59.592Z,101329.31
2022-10-11T23:13:06.181Z,101329.88
2022-10-11T23:16:13.441Z,101321.28
2022-10-11T23:19:16.738Z,101331.94
2022-10-11T23:22:21.273Z,101336.41
2022-10-11T23:25:24.215Z,101334.47
2022-10-11T23:28:29.595Z,101339.38
2022-10-11T23:31:32.151Z,101333.91
2022-10-11T23:34:35.220Z,101332.81
2022-10-11T23:37:39.493Z,101334.34
2022-10-11T23:40:44.264Z,101333.44
2022-10-11T23:43:46.883Z,101344.78
2022-10-11T23:46:49.917Z,101342.94
2022-10-11T23:49:53.895Z,101345.41
2022-10-11T23:52:57.253Z,101346.84
2022-10-11T23:56:00.481Z,101346.84
2022-10-11T23:59:04.448Z,101346.84
